Time;durP1;ratioP1;P1;durP2;ratioP2;P2;SDS_P1;SDS_P2;PMS_P1;PMS_P2;Temp;Humidity;BMP_temperature;BMP_pressure;BME280_temperature;BME280_humidity;BME280_pressure;Samples;Min_cycle;Max_cycle;Signal;HPM_P1;HPM_P2
2021/12/14 00:00:53;;;;;;;21.80;13.23;;;7.90;99.90;;;;;;5041956;28;20033;-78
2021/12/14 00:03:22;;;;;;;21.52;13.00;;;7.80;99.90;;;;;;5022247;28;20390;-77
2021/12/14 00:05:48;;;;;;;22.13;13.18;;;7.80;99.90;;;;;;5022296;28;20041;-80
2021/12/14 00:08:15;;;;;;;23.20;14.25;;;7.80;99.90;;;;;;5028291;28;20021;-79
2021/12/14 00:11:37;;;;;;;24.33;14.35;;;7.80;99.90;;;;;;5023084;28;20100;-78
2021/12/14 00:16:08;;;;;;;24.17;14.90;;;7.80;99.90;;;;;;5025859;28;20064;-79
2021/12/14 00:18:34;;;;;;;22.80;13.90;;;7.90;99.90;;;;;;5026193;28;20024;-78
2021/12/14 00:21:08;;;;;;;27.02;15.18;;;7.80;99.90;;;;;;5025924;28;20030;-81
2021/12/14 00:26:20;;;;;;;29.08;15.32;;;7.80;99.90;;;;;;5024021;28;20036;-79
2021/12/14 00:28:48;;;;;;;38.63;20.02;;;7.70;99.90;;;;;;5022723;28;20041;-78
2021/12/14 00:31:16;;;;;;;24.38;15.18;;;7.80;99.90;;;;;;5019840;28;20455;-79
2021/12/14 00:33:46;;;;;;;26.48;14.82;;;7.70;99.90;;;;;;5034361;28;20040;-78
2021/12/14 00:36:12;;;;;;;33.55;16.40;;;7.70;99.90;;;;;;5018786;28;20045;-78
2021/12/14 00:38:41;;;;;;;26.92;14.95;;;7.70;99.90;;;;;;5026495;28;20142;-80
2021/12/14 00:41:11;;;;;;;26.13;15.50;;;7.70;99.90;;;;;;5022983;28;20096;-80
2021/12/14 00:43:37;;;;;;;33.05;17.20;;;7.70;99.90;;;;;;5024665;28;20112;-81
2021/12/14 00:46:04;;;;;;;32.10;16.10;;;7.70;99.90;;;;;;5022316;28;20580;-81
2021/12/14 00:48:30;;;;;;;32.05;17.17;;;7.70;99.90;;;;;;5024292;28;20053;-79
2021/12/14 00:50:58;;;;;;;28.80;15.48;;;7.60;99.90;;;;;;5023310;28;20399;-78
2021/12/14 00:53:25;;;;;;;32.53;17.70;;;7.60;99.90;;;;;;5025249;28;20099;-80
2021/12/14 00:55:52;;;;;;;33.25;16.27;;;7.60;99.90;;;;;;5021414;28;20032;-79
2021/12/14 00:58:20;;;;;;;34.08;17.65;;;7.60;99.90;;;;;;5019792;28;20032;-78
2021/12/14 01:00:53;;;;;;;33.00;16.33;;;7.60;99.90;;;;;;5015053;28;20461;-78
2021/12/14 01:03:19;;;;;;;31.73;15.80;;;7.70;99.90;;;;;;5022405;28;20028;-79
2021/12/14 01:05:48;;;;;;;33.60;17.00;;;7.60;99.90;;;;;;5012937;28;20051;-80
2021/12/14 01:08:18;;;;;;;32.60;15.98;;;7.90;99.90;;;;;;5020480;28;20060;-79
2021/12/14 01:10:53;;;;;;;38.05;17.60;;;7.50;99.90;;;;;;5020602;28;20399;-78
2021/12/14 01:13:23;;;;;;;35.75;17.00;;;7.50;99.90;;;;;;5019401;28;20075;-78
2021/12/14 01:21:00;;;;;;;43.35;17.92;;;7.40;99.90;;;;;;5018756;28;20603;-78
2021/12/14 01:23:34;;;;;;;40.03;19.63;;;7.60;99.90;;;;;;5015599;28;20483;-79
2021/12/14 01:26:08;;;;;;;40.90;18.13;;;7.40;99.90;;;;;;5014355;28;20410;-80
2021/12/14 01:28:34;;;;;;;49.03;19.30;;;7.40;99.90;;;;;;5023273;28;20055;-77
2021/12/14 01:31:27;;;;;;;46.03;17.48;;;7.50;99.90;;;;;;5019954;28;20030;-80
2021/12/14 01:33:57;;;;;;;37.00;16.20;;;7.40;99.90;;;;;;5022617;28;20032;-82
2021/12/14 01:36:45;;;;;;;38.72;16.25;;;7.40;99.90;;;;;;5016663;28;20107;-80
2021/12/14 01:42:03;;;;;;;36.22;15.00;;;8.20;99.90;;;;;;5027102;28;20559;-80
2021/12/14 01:44:32;;;;;;;39.63;15.25;;;7.30;99.90;;;;;;5025676;28;20956;-80
2021/12/14 01:47:04;;;;;;;33.30;15.80;;;7.30;99.90;;;;;;5019913;28;20032;-82
2021/12/14 01:49:30;;;;;;;38.45;16.70;;;7.20;99.90;;;;;;5022023;28;20037;-79
2021/12/14 01:52:00;;;;;;;34.20;15.43;;;8.40;99.90;;;;;;5021395;28;20073;-82
2021/12/14 01:54:31;;;;;;;34.42;15.02;;;7.10;99.90;;;;;;5024323;28;20049;-81
2021/12/14 01:56:56;;;;;;;33.67;15.95;;;7.10;99.90;;;;;;5024681;28;20043;-79
2021/12/14 01:59:34;;;;;;;31.95;13.50;;;7.10;99.90;;;;;;5025197;28;20112;-80
2021/12/14 02:04:41;;;;;;;41.58;16.95;;;7.10;99.90;;;;;;5022867;28;20026;-82
2021/12/14 02:07:08;;;;;;;37.40;16.05;;;7.00;99.90;;;;;;5020781;28;20033;-80
2021/12/14 02:09:36;;;;;;;36.90;16.15;;;7.10;99.90;;;;;;5022224;28;20040;-82
2021/12/14 02:12:10;;;;;;;36.75;15.40;;;7.00;99.90;;;;;;5036475;28;21695;-78
2021/12/14 02:14:37;;;;;;;34.03;15.52;;;7.10;99.90;;;;;;5017882;28;20040;-79
2021/12/14 02:17:05;;;;;;;37.90;16.40;;;7.10;99.90;;;;;;5020540;28;20033;-81
2021/12/14 02:19:32;;;;;;;37.83;16.38;;;7.00;99.90;;;;;;5017554;28;20395;-78
2021/12/14 02:21:59;;;;;;;31.58;14.63;;;7.00;99.90;;;;;;5020122;28;20610;-80
2021/12/14 02:24:26;;;;;;;32.42;15.30;;;7.10;99.90;;;;;;5021554;28;20034;-81
2021/12/14 02:26:53;;;;;;;35.33;16.20;;;7.00;99.90;;;;;;5021052;28;20053;-79
2021/12/14 02:29:24;;;;;;;41.70;17.30;;;7.10;99.90;;;;;;5019013;28;20029;-79
2021/12/14 02:31:51;;;;;;;36.22;16.50;;;7.00;99.90;;;;;;5025155;28;20018;-84
2021/12/14 02:34:16;;;;;;;38.85;16.15;;;7.00;99.90;;;;;;5028299;28;20043;-80
2021/12/14 02:36:45;;;;;;;38.17;16.08;;;7.00;99.90;;;;;;5025491;28;20025;-77
2021/12/14 02:41:59;;;;;;;39.08;16.45;;;7.00;99.90;;;;;;5023213;28;20592;-79
2021/12/14 02:44:25;;;;;;;41.67;16.95;;;7.00;99.90;;;;;;5030235;28;20029;-80
2021/12/14 02:46:56;;;;;;;39.45;16.60;;;6.90;99.90;;;;;;5020897;28;20538;-83
2021/12/14 02:49:25;;;;;;;38.90;16.67;;;6.90;99.90;;;;;;5022367;28;20044;-78
2021/12/14 02:51:55;;;;;;;38.75;15.60;;;6.90;99.90;;;;;;5028375;28;20040;-78
2021/12/14 02:54:33;;;;;;;45.30;18.08;;;6.80;99.90;;;;;;5033708;28;20140;-79
2021/12/14 02:57:06;;;;;;;42.15;17.33;;;6.80;99.90;;;;;;5023845;28;20029;-80
2021/12/14 02:59:35;;;;;;;43.60;18.10;;;6.80;99.90;;;;;;5025792;28;20033;-80
2021/12/14 03:02:05;;;;;;;44.08;17.30;;;6.80;99.90;;;;;;5018050;28;20414;-80
2021/12/14 03:04:37;;;;;;;48.85;18.15;;;6.90;99.90;;;;;;5022066;28;20104;-79
2021/12/14 03:07:04;;;;;;;39.22;17.52;;;6.90;99.90;;;;;;5021806;28;20056;-80
2021/12/14 03:09:52;;;;;;;40.97;17.23;;;7.50;99.90;;;;;;5024651;28;20372;-81
2021/12/14 03:12:42;;;;;;;41.92;16.80;;;6.80;99.90;;;;;;5023761;28;20083;-79
2021/12/14 03:15:07;;;;;;;40.00;15.90;;;6.80;99.90;;;;;;5025790;28;20033;-79
2021/12/14 03:17:34;;;;;;;46.50;16.65;;;6.70;99.90;;;;;;5041674;28;20034;-80
2021/12/14 03:20:10;;;;;;;42.22;16.95;;;6.70;99.90;;;;;;5022604;28;20033;-79
2021/12/14 03:22:43;;;;;;;39.35;15.60;;;6.70;99.90;;;;;;5037319;28;20033;-82
2021/12/14 03:25:13;;;;;;;40.53;15.50;;;6.70;99.90;;;;;;5022158;28;20097;-78
2021/12/14 03:27:40;;;;;;;37.03;14.75;;;6.60;99.90;;;;;;5023159;28;20029;-79
2021/12/14 03:30:17;;;;;;;37.20;15.27;;;6.60;99.90;;;;;;5022326;28;20033;-80
2021/12/14 03:32:43;;;;;;;39.22;14.93;;;6.70;99.90;;;;;;5038848;28;20030;-79
2021/12/14 03:35:09;;;;;;;36.30;15.25;;;6.80;99.90;;;;;;5020834;28;20561;-80
2021/12/14 03:37:34;;;;;;;31.25;13.52;;;6.80;99.90;;;;;;5024287;28;20033;-77
2021/12/14 03:40:04;;;;;;;32.30;14.20;;;6.70;99.90;;;;;;5028824;28;20394;-80
2021/12/14 03:42:36;;;;;;;29.25;12.70;;;6.70;99.90;;;;;;5022785;28;20025;-78
2021/12/14 03:45:07;;;;;;;28.25;12.15;;;6.70;99.90;;;;;;5024709;28;20064;-80
2021/12/14 03:47:35;;;;;;;;;;;6.70;99.90;;;;;;5026613;28;20026;-80
2021/12/14 03:50:21;;;;;;;24.02;10.40;;;6.70;99.90;;;;;;5024107;28;19917;-79
2021/12/14 03:52:48;;;;;;;23.13;10.88;;;6.70;99.90;;;;;;5033016;28;20036;-78
2021/12/14 03:55:29;;;;;;;28.65;11.98;;;6.60;99.90;;;;;;5025952;28;20033;-86
2021/12/14 03:57:54;;;;;;;;;;;6.60;99.90;;;;;;5019139;28;20495;-79
2021/12/14 04:00:38;;;;;;;25.38;12.05;;;6.60;99.90;;;;;;5023080;28;19916;-80
2021/12/14 04:03:10;;;;;;;28.35;12.82;;;6.60;99.90;;;;;;5020828;28;20483;-80
2021/12/14 04:05:36;;;;;;;31.15;13.73;;;6.60;99.90;;;;;;5017884;28;20029;-81
2021/12/14 04:08:03;;;;;;;30.30;13.25;;;6.60;99.90;;;;;;5025025;28;20030;-79
2021/12/14 04:10:33;;;;;;;27.60;11.98;;;6.60;99.90;;;;;;5023980;28;20057;-79
2021/12/14 04:12:59;;;;;;;29.33;12.50;;;6.60;99.90;;;;;;5022797;28;20029;-81
2021/12/14 04:15:27;;;;;;;27.33;12.80;;;6.60;99.90;;;;;;5025251;28;20117;-79
2021/12/14 04:17:53;;;;;;;25.67;10.68;;;6.50;99.90;;;;;;5022921;28;20037;-82
2021/12/14 04:20:25;;;;;;;27.35;11.82;;;6.50;99.90;;;;;;5018065;28;20025;-81
2021/12/14 04:22:52;;;;;;;28.27;11.35;;;6.50;99.90;;;;;;5023799;28;20153;-81
2021/12/14 04:25:22;;;;;;;28.33;12.07;;;6.50;99.90;;;;;;5024476;28;20513;-78
2021/12/14 04:27:50;;;;;;;28.83;11.18;;;6.40;99.90;;;;;;5024305;28;20045;-79
2021/12/14 04:30:20;;;;;;;27.42;10.98;;;6.40;99.90;;;;;;5020628;28;20389;-80
2021/12/14 04:32:48;;;;;;;29.48;12.63;;;6.50;99.90;;;;;;5016074;28;20879;-81
2021/12/14 04:35:15;;;;;;;28.98;12.57;;;6.40;99.90;;;;;;5018558;28;20426;-81
2021/12/14 04:37:43;;;;;;;30.67;12.10;;;6.40;99.90;;;;;;5019245;28;20100;-79
2021/12/14 04:40:23;;;;;;;28.38;12.30;;;6.40;99.90;;;;;;5022442;28;20072;-79
2021/12/14 04:53:55;;;;;;;26.75;11.75;;;6.30;99.90;;;;;;5025577;28;20103;-79
2021/12/14 04:56:38;;;;;;;27.52;11.38;;;6.20;99.90;;;;;;5025155;28;20033;-80
2021/12/14 04:59:15;;;;;;;30.95;12.27;;;6.20;99.90;;;;;;5027211;28;20482;-79
2021/12/14 05:01:45;;;;;;;25.95;11.05;;;6.20;99.90;;;;;;5026429;28;20026;-80
2021/12/14 05:04:17;;;;;;;29.08;12.15;;;6.20;99.90;;;;;;5022885;28;20021;-79
2021/12/14 05:06:49;;;;;;;28.77;11.20;;;6.20;99.90;;;;;;5029529;28;20072;-81
2021/12/14 05:09:27;;;;;;;31.63;11.82;;;6.20;99.90;;;;;;5030815;28;20028;-83
2021/12/14 05:11:55;;;;;;;32.03;13.20;;;6.20;99.90;;;;;;5028097;28;20089;-80
2021/12/14 05:14:23;;;;;;;32.80;12.52;;;6.20;99.90;;;;;;5023152;28;20061;-80
2021/12/14 05:16:56;;;;;;;31.52;12.77;;;6.20;99.90;;;;;;5020427;28;20223;-80
2021/12/14 05:19:26;;;;;;;37.53;13.60;;;6.20;99.90;;;;;;5019639;28;20487;-79
2021/12/14 05:21:58;;;;;;;34.13;11.60;;;6.20;99.90;;;;;;5026702;28;20033;-80
2021/12/14 05:24:24;;;;;;;30.23;11.45;;;6.20;99.90;;;;;;5023687;28;20029;-79
2021/12/14 05:26:59;;;;;;;31.20;11.70;;;6.20;99.90;;;;;;5022927;28;20099;-82
2021/12/14 05:29:27;;;;;;;28.77;11.70;;;6.20;99.90;;;;;;5020480;28;20395;-78
2021/12/14 05:31:53;;;;;;;22.70;10.07;;;6.20;99.90;;;;;;5022910;28;20103;-77
2021/12/14 05:34:22;;;;;;;18.48;8.63;;;6.20;99.90;;;;;;5020417;28;20454;-77
2021/12/14 05:36:48;;;;;;;23.35;9.88;;;6.10;99.90;;;;;;5025898;28;20116;-81
2021/12/14 05:39:59;;;;;;;20.83;9.38;;;6.10;99.90;;;;;;5022163;28;20119;-85
2021/12/14 05:44:51;;;;;;;16.38;8.18;;;5.90;99.90;;;;;;5022410;28;20029;-81
2021/12/14 05:47:18;;;;;;;20.42;8.07;;;6.00;99.90;;;;;;5020255;28;20125;-81
2021/12/14 05:49:47;;;;;;;21.05;9.10;;;5.90;99.90;;;;;;5021854;28;20071;-80
2021/12/14 05:52:16;;;;;;;22.98;9.48;;;6.00;99.90;;;;;;5017086;28;20116;-80
2021/12/14 05:54:42;;;;;;;22.07;8.23;;;5.90;99.90;;;;;;5025380;28;20451;-79
2021/12/14 05:57:15;;;;;;;22.25;9.32;;;5.90;99.90;;;;;;5015756;28;20053;-80
2021/12/14 05:59:40;;;;;;;23.38;9.93;;;5.80;99.90;;;;;;5016539;28;20033;-79
2021/12/14 06:02:08;;;;;;;23.38;10.05;;;5.80;99.90;;;;;;5018320;28;20061;-79
2021/12/14 06:04:47;;;;;;;19.48;9.27;;;5.90;99.90;;;;;;5020213;28;20021;-79
2021/12/14 06:07:13;;;;;;;22.00;8.95;;;5.90;99.90;;;;;;5021113;28;20026;-79
2021/12/14 06:09:44;;;;;;;20.77;8.90;;;5.90;99.90;;;;;;5020298;28;20491;-82
2021/12/14 06:12:15;;;;;;;18.75;8.18;;;5.90;99.90;;;;;;5013203;28;20103;-80
2021/12/14 06:14:50;;;;;;;19.67;8.73;;;6.60;99.90;;;;;;5018262;28;20499;-79
2021/12/14 06:17:22;;;;;;;21.00;8.85;;;6.10;99.90;;;;;;5015416;28;20174;-77
2021/12/14 06:19:54;;;;;;;19.67;9.07;;;6.10;99.90;;;;;;5016494;28;20037;-79
2021/12/14 06:22:22;;;;;;;20.58;10.13;;;6.10;99.90;;;;;;5013206;28;20029;-80
2021/12/14 06:25:00;;;;;;;23.58;10.02;;;6.10;99.90;;;;;;5011961;28;20033;-79
2021/12/14 06:27:29;;;;;;;24.65;10.10;;;6.00;99.90;;;;;;5011727;28;20036;-79
2021/12/14 06:29:59;;;;;;;24.75;9.30;;;6.00;99.90;;;;;;5006881;28;20073;-79
2021/12/14 06:32:33;;;;;;;23.87;9.47;;;6.00;99.90;;;;;;5016683;28;20068;-82
2021/12/14 06:35:12;;;;;;;24.42;9.70;;;6.00;99.90;;;;;;5013419;28;20045;-80
2021/12/14 06:38:10;;;;;;;20.27;8.80;;;6.00;99.90;;;;;;5014336;28;20498;-79
2021/12/14 06:41:02;;;;;;;22.88;9.60;;;6.00;99.90;;;;;;5034793;28;20091;-81
2021/12/14 06:43:32;;;;;;;22.23;8.65;;;5.90;99.90;;;;;;5023503;28;20064;-77
2021/12/14 06:46:01;;;;;;;21.98;8.40;;;5.90;99.90;;;;;;5013584;28;20458;-77
2021/12/14 06:48:29;;;;;;;20.85;8.77;;;5.90;99.90;;;;;;5014352;28;20199;-80
2021/12/14 06:50:58;;;;;;;20.17;7.82;;;5.90;99.90;;;;;;5034087;28;20068;-81
2021/12/14 06:53:25;;;;;;;16.67;7.50;;;5.90;99.90;;;;;;5015605;28;20521;-78
2021/12/14 06:55:56;;;;;;;19.25;9.02;;;5.90;99.90;;;;;;5012841;28;20037;-81
2021/12/14 06:58:29;;;;;;;20.23;8.05;;;5.90;99.90;;;;;;5021133;28;20075;-83
2021/12/14 07:00:59;;;;;;;17.40;7.20;;;5.80;99.90;;;;;;5024161;28;20041;-81
2021/12/14 07:03:52;;;;;;;11.88;5.90;;;5.80;99.90;;;;;;5009916;28;20068;-79
2021/12/14 07:06:25;;;;;;;13.77;6.40;;;5.80;99.90;;;;;;5017593;28;20065;-80
2021/12/14 07:08:51;;;;;;;13.82;6.45;;;5.80;99.90;;;;;;5013372;28;20040;-79
2021/12/14 07:11:20;;;;;;;13.88;6.80;;;5.80;99.90;;;;;;5010958;28;20048;-79
2021/12/14 07:13:46;;;;;;;13.20;6.22;;;5.80;99.90;;;;;;5012620;28;20499;-80
2021/12/14 07:16:19;;;;;;;12.55;5.75;;;5.70;99.90;;;;;;5014332;28;20100;-79
2021/12/14 07:18:50;;;;;;;14.40;5.88;;;5.80;99.90;;;;;;5014073;28;20035;-79
2021/12/14 07:21:40;;;;;;;15.10;6.07;;;5.80;99.90;;;;;;5038782;28;20029;-79
2021/12/14 07:24:38;;;;;;;13.80;6.18;;;5.70;99.90;;;;;;5014705;28;20128;-78
2021/12/14 07:27:24;;;;;;;12.35;4.93;;;5.60;99.90;;;;;;4974061;28;20040;-80
2021/12/14 07:29:51;;;;;;;15.40;6.25;;;5.60;99.90;;;;;;5022868;28;20513;-82
2021/12/14 07:32:40;;;;;;;10.85;5.40;;;5.70;99.90;;;;;;5037086;28;20365;-82
2021/12/14 07:35:36;;;;;;;11.70;5.53;;;5.70;99.90;;;;;;5021565;28;22834;-80
2021/12/14 07:38:25;;;;;;;11.45;5.45;;;5.70;99.90;;;;;;5012630;28;20038;-80
2021/12/14 07:41:18;;;;;;;9.95;4.88;;;5.60;99.90;;;;;;5019222;28;20056;-76
2021/12/14 07:43:51;;;;;;;11.27;5.55;;;5.60;99.90;;;;;;5023065;28;20037;-79
2021/12/14 07:46:25;;;;;;;12.20;5.47;;;5.70;99.90;;;;;;5021904;28;20033;-79
2021/12/14 07:48:58;;;;;;;12.10;6.05;;;5.80;99.90;;;;;;5015728;28;20384;-77
2021/12/14 07:51:26;;;;;;;12.75;5.65;;;5.80;99.90;;;;;;5008300;28;20026;-77
2021/12/14 07:53:58;;;;;;;13.25;5.72;;;5.70;99.90;;;;;;5007107;28;20021;-79
2021/12/14 07:56:34;;;;;;;11.52;5.85;;;5.70;99.90;;;;;;5011510;28;20490;-81
2021/12/14 07:59:00;;;;;;;11.35;5.45;;;5.60;99.90;;;;;;5010406;28;20033;-79
2021/12/14 08:01:27;;;;;;;13.40;6.30;;;5.60;99.90;;;;;;5011628;28;21409;-80
2021/12/14 08:04:02;;;;;;;12.45;5.80;;;5.50;99.90;;;;;;5018442;28;20025;-81
2021/12/14 08:06:45;;;;;;;12.68;6.40;;;5.50;99.90;;;;;;5018858;28;20575;-78
2021/12/14 08:09:18;;;;;;;14.82;6.63;;;5.60;99.90;;;;;;5018785;28;20051;-77
2021/12/14 08:11:48;;;;;;;14.88;6.75;;;5.60;99.90;;;;;;5020019;28;20025;-79
2021/12/14 08:14:19;;;;;;;14.80;6.97;;;5.60;99.90;;;;;;5013416;28;20035;-81
2021/12/14 08:16:51;;;;;;;;;;;5.70;99.90;;;;;;5014690;28;20045;-79
2021/12/14 08:19:31;;;;;;;16.80;6.78;;;5.70;99.90;;;;;;5016286;28;19924;-83
2021/12/14 08:22:07;;;;;;;13.73;6.28;;;5.80;99.90;;;;;;5016967;28;20391;-76
2021/12/14 08:24:33;;;;;;;13.27;6.72;;;5.70;99.90;;;;;;5019652;28;20041;-81
2021/12/14 08:27:01;;;;;;;14.50;7.13;;;5.70;99.90;;;;;;5016071;28;20026;-82
2021/12/14 08:29:33;;;;;;;14.48;6.57;;;5.70;99.90;;;;;;5030602;28;20053;-81
2021/12/14 08:32:07;;;;;;;16.52;7.65;;;5.80;99.90;;;;;;5022118;28;20060;-81
2021/12/14 08:34:38;;;;;;;15.30;7.38;;;5.80;99.90;;;;;;5027830;28;20029;-83
2021/12/14 08:37:15;;;;;;;;;;;5.80;99.90;;;;;;5021146;28;20021;-80
2021/12/14 08:39:51;;;;;;;17.75;8.32;;;5.80;99.90;;;;;;5018435;28;19940;-79
2021/12/14 08:42:32;;;;;;;20.42;8.27;;;5.90;99.90;;;;;;5036591;28;20152;-80
2021/12/14 08:45:00;;;;;;;17.15;7.78;;;5.80;99.90;;;;;;5012437;28;20057;-77
2021/12/14 08:47:44;;;;;;;17.80;7.65;;;5.90;99.90;;;;;;5022016;28;20041;-85
2021/12/14 08:50:13;;;;;;;18.52;7.65;;;5.80;99.90;;;;;;5024407;28;20029;-80
2021/12/14 08:52:41;;;;;;;16.40;7.78;;;5.80;99.90;;;;;;5015385;28;20030;-80
2021/12/14 08:55:10;;;;;;;24.85;10.27;;;5.80;99.90;;;;;;5009218;28;20065;-77
2021/12/14 08:57:37;;;;;;;19.10;8.90;;;5.80;99.90;;;;;;5009325;28;21144;-76
2021/12/14 09:00:13;;;;;;;23.27;8.32;;;5.70;99.90;;;;;;5010763;28;20246;-77
2021/12/14 09:02:40;;;;;;;19.85;9.18;;;5.80;99.90;;;;;;5010275;28;20388;-81
2021/12/14 09:05:15;;;;;;;22.30;9.20;;;5.80;99.90;;;;;;5016244;28;20033;-78
2021/12/14 09:07:42;;;;;;;17.50;8.68;;;5.80;99.90;;;;;;5010888;28;20033;-76
2021/12/14 09:10:12;;;;;;;21.48;9.27;;;5.80;99.90;;;;;;5015234;28;20571;-75
2021/12/14 09:12:41;;;;;;;21.98;9.07;;;5.90;99.90;;;;;;5011721;28;20090;-79
2021/12/14 09:15:20;;;;;;;21.27;9.45;;;5.90;99.90;;;;;;5023456;28;20505;-80
2021/12/14 09:17:48;;;;;;;23.05;10.50;;;6.00;99.90;;;;;;5011467;28;20029;-78
2021/12/14 09:20:21;;;;;;;28.08;10.50;;;6.00;99.90;;;;;;5020215;28;20037;-79
2021/12/14 09:22:51;;;;;;;23.45;10.57;;;6.10;99.90;;;;;;5013708;28;20092;-80
2021/12/14 09:25:21;;;;;;;22.27;10.03;;;6.20;99.90;;;;;;5009764;28;20025;-83
2021/12/14 09:27:47;;;;;;;17.58;8.25;;;6.10;99.90;;;;;;5013580;28;20033;-80
2021/12/14 09:30:17;;;;;;;19.15;9.57;;;6.10;99.90;;;;;;5017751;28;20605;-80
2021/12/14 09:32:43;;;;;;;18.15;9.25;;;6.10;99.90;;;;;;5012307;28;20042;-83
2021/12/14 09:35:16;;;;;;;21.25;9.55;;;6.00;99.90;;;;;;5011435;28;20916;-82
2021/12/14 09:37:42;;;;;;;20.75;9.70;;;5.90;99.90;;;;;;5013051;28;20025;-80
2021/12/14 09:40:13;;;;;;;22.63;10.63;;;6.00;99.90;;;;;;5022539;28;20025;-79
2021/12/14 09:42:39;;;;;;;18.75;9.20;;;6.00;99.90;;;;;;5018155;28;20757;-77
2021/12/14 09:45:25;;;;;;;22.10;9.50;;;6.20;99.90;;;;;;5017505;28;20060;-82
2021/12/14 09:47:52;;;;;;;21.83;10.82;;;6.10;99.90;;;;;;5017782;28;20025;-82
2021/12/14 09:50:31;;;;;;;17.90;9.70;;;6.10;99.90;;;;;;5019023;28;20029;-84
2021/12/14 09:53:00;;;;;;;19.00;9.75;;;6.10;99.90;;;;;;5017949;28;20191;-79
2021/12/14 09:55:29;;;;;;;19.55;9.27;;;6.00;99.90;;;;;;5018860;28;20513;-80
2021/12/14 09:58:00;;;;;;;20.33;9.10;;;5.90;99.90;;;;;;5022552;28;20030;-83
2021/12/14 10:00:43;;;;;;;18.42;9.15;;;6.00;99.90;;;;;;5017028;28;20021;-82
2021/12/14 10:03:10;;;;;;;18.80;9.10;;;6.10;99.90;;;;;;5030467;28;20037;-82
2021/12/14 10:05:47;;;;;;;15.73;8.63;;;6.10;99.90;;;;;;5021868;28;20072;-82
2021/12/14 10:08:19;;;;;;;19.77;9.63;;;6.20;99.90;;;;;;5023385;28;20399;-83
2021/12/14 10:11:07;;;;;;;19.52;9.48;;;6.20;99.90;;;;;;5021205;28;20013;-82
2021/12/14 10:13:37;;;;;;;20.27;9.55;;;6.20;99.90;;;;;;5023996;28;20079;-82
2021/12/14 10:16:05;;;;;;;20.48;9.70;;;6.20;99.90;;;;;;5025480;28;20108;-82
2021/12/14 10:18:37;;;;;;;24.30;12.32;;;6.00;99.90;;;;;;5037883;28;20115;-78
2021/12/14 10:21:20;;;;;;;18.20;9.80;;;6.20;99.90;;;;;;5023783;28;20061;-80
2021/12/14 10:23:47;;;;;;;25.55;11.60;;;6.20;99.90;;;;;;5016480;28;20565;-77
2021/12/14 10:26:14;;;;;;;20.42;9.77;;;6.20;99.90;;;;;;5013116;28;20068;-79
2021/12/14 10:28:45;;;;;;;17.58;9.18;;;6.20;99.90;;;;;;5018685;28;20032;-79
2021/12/14 10:31:18;;;;;;;23.42;10.25;;;6.30;99.90;;;;;;5017570;28;20026;-80
2021/12/14 10:33:45;;;;;;;22.23;10.48;;;6.20;99.90;;;;;;5019013;28;20037;-75
2021/12/14 10:36:26;;;;;;;20.60;10.30;;;6.20;99.90;;;;;;5013485;28;20034;-78
2021/12/14 10:39:22;;;;;;;21.05;10.43;;;6.30;99.90;;;;;;5014418;28;20037;-80
2021/12/14 10:44:43;;;;;;;23.83;11.52;;;6.40;99.90;;;;;;5024422;28;20410;-77
2021/12/14 10:47:11;;;;;;;24.33;12.95;;;6.50;99.90;;;;;;5020222;28;20028;-79
2021/12/14 10:49:37;;;;;;;25.73;13.25;;;6.40;99.90;;;;;;5019285;28;20033;-81
2021/12/14 10:52:14;;;;;;;28.38;14.48;;;6.50;99.90;;;;;;5022742;28;20052;-79
2021/12/14 10:54:44;;;;;;;26.67;14.20;;;6.60;99.90;;;;;;5020074;28;20350;-82
2021/12/14 10:57:14;;;;;;;23.85;12.90;;;6.50;99.90;;;;;;5020693;28;20402;-78
2021/12/14 10:59:43;;;;;;;23.33;11.70;;;6.40;99.90;;;;;;5022538;28;20160;-84
2021/12/14 11:02:10;;;;;;;28.50;12.25;;;6.40;99.90;;;;;;5015300;28;20422;-79
2021/12/14 11:04:53;;;;;;;21.27;11.15;;;6.40;99.90;;;;;;5037758;28;20630;-80
2021/12/14 11:07:37;;;;;;;20.20;9.75;;;6.40;99.90;;;;;;5037058;28;20036;-78
2021/12/14 11:10:08;;;;;;;15.73;9.15;;;6.40;99.90;;;;;;5016142;28;20021;-79
2021/12/14 11:12:36;;;;;;;17.90;9.32;;;6.40;99.90;;;;;;5016996;28;20026;-81
2021/12/14 11:15:13;;;;;;;17.48;9.45;;;6.40;99.90;;;;;;5013727;28;20109;-76
2021/12/14 11:18:41;;;;;;;16.38;9.25;;;6.40;99.90;;;;;;5020970;28;20033;-79
2021/12/14 11:20:37;;;;;;;14.25;8.13;;;6.30;99.90;;;;;;5007783;28;20132;-82
2021/12/14 11:23:09;;;;;;;22.92;10.75;;;6.20;99.90;;;;;;5022283;28;20513;-83
2021/12/14 11:25:40;;;;;;;17.85;10.60;;;6.00;99.90;;;;;;5036926;28;20105;-80
2021/12/14 11:28:31;;;;;;;15.63;8.93;;;6.30;99.90;;;;;;5024023;28;20025;-79
2021/12/14 11:31:02;;;;;;;;;;;6.40;99.90;;;;;;5021567;28;20424;-82
2021/12/14 11:33:32;;;;;;;;;;;6.40;99.90;;;;;;5021399;28;19913;-80
2021/12/14 11:36:19;;;;;;;29.30;13.40;;;6.40;99.90;;;;;;5019801;28;19921;-80
2021/12/14 11:38:53;;;;;;;27.52;15.23;;;6.50;99.90;;;;;;5019487;28;20470;-79
2021/12/14 11:41:24;;;;;;;28.48;16.20;;;6.50;99.90;;;;;;5021724;28;20427;-78
2021/12/14 11:43:53;;;;;;;25.38;14.27;;;6.50;99.90;;;;;;5018003;28;20026;-75
2021/12/14 11:46:20;;;;;;;24.80;13.40;;;6.40;99.90;;;;;;5018885;28;20026;-77
2021/12/14 11:48:46;;;;;;;25.73;14.40;;;6.40;99.90;;;;;;5019852;28;20017;-79
2021/12/14 11:51:12;;;;;;;29.42;15.10;;;6.30;99.90;;;;;;5022349;28;20233;-78
2021/12/14 11:53:38;;;;;;;26.10;14.38;;;6.30;99.90;;;;;;5012107;28;20029;-79
2021/12/14 11:56:03;;;;;;;27.65;15.13;;;6.30;99.90;;;;;;5022381;28;20025;-78
2021/12/14 11:58:36;;;;;;;28.98;15.88;;;6.20;99.90;;;;;;5019439;28;20029;-79
2021/12/14 12:01:32;;;;;;;27.13;15.82;;;6.20;99.90;;;;;;5019749;28;20042;-77
2021/12/14 12:04:29;;;;;;;28.38;14.35;;;6.20;99.90;;;;;;5019145;28;20490;-81
2021/12/14 12:09:50;;;;;;;29.63;13.65;;;6.20;99.90;;;;;;5017130;28;20028;-77
2021/12/14 12:12:24;;;;;;;25.38;14.23;;;6.20;99.90;;;;;;5018491;28;20443;-80
2021/12/14 12:15:09;;;;;;;24.08;13.65;;;6.20;99.90;;;;;;5017847;28;20022;-78
2021/12/14 12:17:46;;;;;;;24.02;12.90;;;6.20;99.90;;;;;;5014040;28;20018;-79
2021/12/14 12:20:17;;;;;;;21.38;11.60;;;6.20;99.90;;;;;;5008964;28;20030;-77
2021/12/14 12:22:47;;;;;;;19.40;10.25;;;6.10;99.90;;;;;;5036151;28;20068;-81
2021/12/14 12:25:24;;;;;;;19.08;10.80;;;5.30;99.90;;;;;;5020066;28;20395;-79
2021/12/14 12:27:54;;;;;;;16.55;9.15;;;6.90;99.90;;;;;;5019861;28;20037;-84
2021/12/14 12:30:55;;;;;;;14.02;8.20;;;6.40;99.90;;;;;;5017786;28;20548;-79
2021/12/14 12:33:23;;;;;;;15.30;8.80;;;6.40;99.90;;;;;;5006465;28;20042;-79
2021/12/14 12:36:14;;;;;;;17.92;9.48;;;6.50;99.90;;;;;;5020916;28;20040;-78
2021/12/14 12:38:46;;;;;;;18.10;9.27;;;6.50;99.90;;;;;;5013453;28;20036;-80
2021/12/14 12:41:37;;;;;;;20.80;10.05;;;6.70;99.90;;;;;;5017782;28;20033;-79
2021/12/14 12:44:13;;;;;;;18.08;9.73;;;6.50;99.90;;;;;;5018802;28;20542;-78
2021/12/14 12:46:47;;;;;;;16.73;9.52;;;6.50;99.90;;;;;;5017379;28;20083;-82
2021/12/14 12:49:23;;;;;;;17.85;10.02;;;6.40;99.90;;;;;;5035778;28;20026;-80
2021/12/14 12:52:08;;;;;;;20.65;10.52;;;6.40;99.90;;;;;;5015474;28;20523;-81
2021/12/14 12:54:45;;;;;;;21.20;11.23;;;6.40;99.90;;;;;;5019783;28;20033;-79
2021/12/14 12:57:34;;;;;;;19.75;10.77;;;6.40;99.90;;;;;;5017173;28;20033;-81
2021/12/14 13:00:10;;;;;;;20.77;10.35;;;6.40;99.90;;;;;;5019040;28;20033;-80
2021/12/14 13:02:42;;;;;;;20.15;10.32;;;6.40;99.90;;;;;;5033383;28;20060;-78
2021/12/14 13:05:13;;;;;;;19.10;9.98;;;6.30;99.90;;;;;;5020559;28;20410;-77
2021/12/14 13:08:03;;;;;;;17.88;9.57;;;6.30;99.90;;;;;;5013031;28;20026;-79
2021/12/14 13:10:55;;;;;;;16.77;9.10;;;6.30;99.90;;;;;;5008066;28;20034;-80
2021/12/14 13:13:32;;;;;;;20.13;9.20;;;6.30;99.90;;;;;;5003263;28;20486;-81
2021/12/14 13:16:07;;;;;;;20.38;9.70;;;6.40;99.90;;;;;;5030679;28;20108;-80
2021/12/14 13:18:38;;;;;;;19.80;10.40;;;6.40;99.90;;;;;;5020463;28;20984;-80
2021/12/14 13:21:23;;;;;;;;;;;6.40;99.90;;;;;;5017479;28;20503;-80
2021/12/14 13:23:51;;;;;;;21.40;12.05;;;6.50;99.90;;;;;;5018950;28;19914;-82
2021/12/14 13:26:29;;;;;;;17.77;9.55;;;6.50;99.90;;;;;;5018051;28;20124;-82
2021/12/14 13:29:13;;;;;;;18.23;9.48;;;6.50;99.90;;;;;;5019506;28;20486;-78
2021/12/14 13:31:49;;;;;;;18.00;10.13;;;6.40;99.90;;;;;;5018044;28;20079;-81
2021/12/14 13:34:20;;;;;;;19.80;10.23;;;7.30;99.90;;;;;;5020926;28;20021;-83
2021/12/14 13:36:47;;;;;;;22.33;10.93;;;6.40;99.90;;;;;;5018195;28;20595;-82
2021/12/14 13:39:15;;;;;;;22.10;11.40;;;6.90;99.90;;;;;;5019058;28;20042;-80
2021/12/14 13:41:58;;;;;;;18.13;9.15;;;6.40;99.90;;;;;;5015903;28;20032;-80
2021/12/14 13:44:24;;;;;;;20.30;9.50;;;6.50;99.90;;;;;;5015622;28;20504;-79
2021/12/14 13:46:49;;;;;;;20.63;10.35;;;6.60;99.90;;;;;;5016707;28;20104;-79
2021/12/14 13:49:15;;;;;;;20.55;9.95;;;6.60;99.90;;;;;;5020263;28;20028;-82